Time;durP1;ratioP1;P1;durP2;ratioP2;P2;SDS_P1;SDS_P2;PMS_P1;PMS_P2;Temp;Humidity;BMP_temperature;BMP_pressure;BME280_temperature;BME280_humidity;BME280_pressure;Samples;Min_cycle;Max_cycle;Signal;HPM_P1;HPM_P2
2022/09/17 00:01:00;;;;;;;2.13;1.25;;;;;;;9.17;83.48;97570.72;4118714;28;20047;-86
2022/09/17 00:03:02;;;;;;;1.55;0.90;;;;;;;9.25;84.13;97578.38;4111356;28;20130;-93
2022/09/17 00:05:05;;;;;;;1.20;1.10;;;;;;;9.15;83.46;97567.50;4149546;28;20048;-90
2022/09/17 00:07:07;;;;;;;1.02;0.80;;;;;;;9.23;83.40;97572.50;4119762;28;20054;-89
2022/09/17 00:09:09;;;;;;;1.02;0.95;;;;;;;9.29;83.72;97579.56;4150973;28;20050;-87
2022/09/17 00:11:20;;;;;;;1.23;0.90;;;;;;;9.28;83.81;97582.38;4118252;28;20069;-88
2022/09/17 00:13:22;;;;;;;0.85;0.70;;;;;;;9.35;83.45;97594.44;4092142;29;20135;-87
2022/09/17 00:15:23;;;;;;;1.17;0.88;;;;;;;9.29;83.36;97576.94;4138093;28;20042;-89
2022/09/17 00:17:25;;;;;;;1.48;1.15;;;;;;;9.21;83.04;97565.88;4117627;28;20114;-88
2022/09/17 00:19:27;;;;;;;1.65;1.05;;;;;;;9.24;83.05;97586.44;4149400;28;20520;-87
2022/09/17 00:21:31;;;;;;;0.82;0.82;;;;;;;9.17;83.56;97581.19;4115171;28;20078;-88
2022/09/17 00:23:33;;;;;;;1.05;0.80;;;;;;;9.19;84.62;97565.31;4132673;28;20058;-89
2022/09/17 00:25:44;;;;;;;1.85;1.17;;;;;;;9.04;83.57;97565.50;4107880;28;20114;-91
2022/09/17 00:27:46;;;;;;;1.55;0.95;;;;;;;9.14;83.58;97571.13;4133355;28;20494;-93
2022/09/17 00:29:47;;;;;;;1.98;1.20;;;;;;;8.96;83.79;97550.81;4130293;28;20751;-93
2022/09/17 00:31:49;;;;;;;2.00;1.13;;;;;;;9.10;84.24;97575.16;4140126;28;20050;-91
2022/09/17 00:33:51;;;;;;;1.88;1.10;;;;;;;9.07;84.00;97575.56;4113706;28;20522;-88
2022/09/17 00:36:02;;;;;;;2.63;1.50;;;;;;;9.04;83.41;97570.72;4111650;28;20390;-88
2022/09/17 00:38:04;;;;;;;2.55;1.60;;;;;;;9.06;83.70;97571.34;4135149;28;20481;-92
2022/09/17 00:40:07;;;;;;;1.63;1.10;;;;;;;8.97;83.65;97554.25;4153878;28;20053;-90
2022/09/17 00:42:11;;;;;;;1.50;1.40;;;;;;;9.09;85.82;97571.72;4150128;28;20054;-89
2022/09/17 00:44:44;;;;;;;1.98;1.10;;;;;;;9.21;84.94;97577.16;4132868;28;20050;-90
2022/09/17 00:46:47;;;;;;;2.25;1.40;;;;;;;9.10;83.50;97575.16;4133447;28;20046;-89
2022/09/17 00:48:51;;;;;;;2.58;1.35;;;;;;;9.03;83.30;97561.28;4144198;28;20050;-91
2022/09/17 00:50:57;;;;;;;1.80;1.20;;;;;;;9.17;84.80;97581.19;4117303;28;20812;-91
2022/09/17 00:53:08;;;;;;;2.70;1.60;;;;;;;9.14;83.56;97571.13;4157098;28;20058;-93
2022/09/17 00:55:35;;;;;;;3.47;1.63;;;;;;;8.99;83.27;97575.75;4115283;28;20038;-88
2022/09/17 00:57:40;;;;;;;4.22;2.28;;;;;;;8.95;83.77;97578.00;4133733;28;20521;-88
2022/09/17 00:59:42;;;;;;;2.97;2.15;;;;;;;9.01;83.52;97587.66;4145851;28;20056;-92
2022/09/17 01:01:45;;;;;;;2.03;1.83;;;;;;;8.93;84.05;97573.94;4133785;28;20050;-89
2022/09/17 01:03:47;;;;;;;2.75;2.08;;;;;;;8.98;83.79;97585.41;4113082;28;20050;-89
2022/09/17 01:06:37;;;;;;;4.18;2.10;;;;;;;8.96;84.07;97578.78;4106098;28;20043;-93
2022/09/17 01:08:54;;;;;;;2.72;2.45;;;;;;;8.93;84.03;97585.22;4101533;28;20058;-86
2022/09/17 01:11:59;;;;;;;3.75;2.20;;;;;;;8.95;84.20;97587.66;4151976;28;20050;-92
2022/09/17 01:14:47;;;;;;;3.75;1.95;;;;;;;8.84;83.97;97582.00;4132443;28;20125;-89
2022/09/17 01:17:32;;;;;;;2.55;1.88;;;;;;;8.85;84.31;97588.84;4144362;28;20066;-93
2022/09/17 01:20:17;;;;;;;2.67;2.22;;;;;;;8.92;84.07;97601.13;4147210;28;20050;-90
2022/09/17 01:22:59;;;;;;;3.10;2.15;;;;;;;8.87;84.16;97600.91;4148044;28;20480;-90
2022/09/17 01:25:40;;;;;;;4.85;2.35;;;;;;;8.87;84.37;97606.13;4110456;28;20376;-88
2022/09/17 01:28:19;;;;;;;2.75;2.10;;;;;;;8.87;84.23;97600.91;4101028;28;20047;-90
2022/09/17 01:30:55;;;;;;;4.82;2.35;;;;;;;8.76;84.20;97603.13;4133222;28;20061;-89
2022/09/17 01:33:10;;;;;;;5.00;2.38;;;;;;;8.81;84.45;97611.16;4100444;29;20703;-92
2022/09/17 01:35:37;;;;;;;4.07;1.95;;;;;;;8.82;84.34;97614.59;4133280;28;20401;-90
2022/09/17 01:38:00;;;;;;;3.55;1.92;;;;;;;8.87;84.32;97612.16;4102573;28;20050;-92
2022/09/17 01:40:25;;;;;;;3.85;1.92;;;;;;;8.90;84.15;97610.97;4115484;28;20049;-87
2022/09/17 01:43:09;;;;;;;2.83;1.90;;;;;;;8.92;83.94;97598.50;4104931;28;20446;-93
2022/09/17 01:45:22;;;;;;;3.72;2.05;;;;;;;8.97;83.68;97607.34;4147126;28;20041;-88
2022/09/17 01:47:47;;;;;;;3.00;1.90;;;;;;;9.04;83.41;97613.38;4131611;28;20145;-89
2022/09/17 01:49:58;;;;;;;2.63;1.88;;;;;;;8.96;83.40;97604.94;4132916;28;20054;-89
2022/09/17 01:52:02;;;;;;;3.58;2.10;;;;;;;8.98;83.58;97608.97;4099953;28;20153;-88
2022/09/17 01:54:16;;;;;;;3.45;2.00;;;;;;;9.02;83.53;97599.72;4114800;28;20053;-87
2022/09/17 01:56:25;;;;;;;2.28;1.90;;;;;;;8.97;83.66;97596.09;4104773;28;20086;-87
2022/09/17 01:58:40;;;;;;;3.38;2.20;;;;;;;9.00;83.67;97611.41;4132243;28;20505;-87
2022/09/17 02:00:53;;;;;;;2.55;1.70;;;;;;;9.04;83.68;97609.97;4134971;28;20774;-87
2022/09/17 02:03:08;;;;;;;3.67;2.25;;;;;;;9.05;84.07;97614.19;4144532;28;20042;-86
2022/09/17 02:05:27;;;;;;;5.75;2.33;;;;;;;9.06;83.28;97623.66;4117097;28;20046;-88
2022/09/17 02:07:35;;;;;;;2.50;1.70;;;;;;;9.06;83.22;97610.59;4146164;28;20041;-92
2022/09/17 02:09:46;;;;;;;3.10;1.60;;;;;;;9.10;82.75;97620.44;4137559;28;20046;-89
2022/09/17 02:11:57;;;;;;;;;;;;;;;9.14;82.88;97623.47;4122850;28;20086;-93
2022/09/17 02:14:09;;;;;;;2.13;1.90;;;;;;;9.16;83.66;97616.19;4144357;28;19932;-87
2022/09/17 02:16:38;;;;;;;2.78;1.90;;;;;;;9.20;82.12;97620.03;4117262;28;20066;-91
2022/09/17 02:18:54;;;;;;;1.85;1.58;;;;;;;9.17;83.12;97617.81;4163778;28;20053;-92
2022/09/17 02:21:10;;;;;;;4.25;2.00;;;;;;;9.15;83.04;97609.38;4115502;28;20054;-91
2022/09/17 02:23:24;;;;;;;4.53;2.40;;;;;;;9.01;82.94;97597.31;4107327;28;20043;-90
2022/09/17 02:25:51;;;;;;;2.67;2.10;;;;;;;9.00;82.77;97606.16;4116002;28;20049;-91
2022/09/17 02:28:11;;;;;;;3.47;1.90;;;;;;;9.00;82.91;97611.41;4115958;28;20050;-89
2022/09/17 02:30:14;;;;;;;6.72;2.22;;;;;;;8.96;82.63;97610.97;4101773;28;20573;-88
2022/09/17 02:32:19;;;;;;;3.25;2.17;;;;;;;9.01;83.52;97613.81;4106971;28;20042;-90
2022/09/17 02:34:24;;;;;;;2.75;2.17;;;;;;;8.95;83.08;97603.34;4113807;28;20055;-91
2022/09/17 02:36:27;;;;;;;2.65;2.33;;;;;;;8.94;82.71;97596.50;4115473;28;20062;-88
2022/09/17 02:38:31;;;;;;;5.05;2.10;;;;;;;8.99;82.72;97594.88;4115093;28;20053;-93
2022/09/17 02:40:47;;;;;;;3.47;1.90;;;;;;;9.06;82.02;97600.13;4098780;29;20089;-89
2022/09/17 02:43:12;;;;;;;4.05;2.13;;;;;;;9.13;81.98;97600.94;4116002;28;20047;-89
2022/09/17 02:45:34;;;;;;;4.80;2.28;;;;;;;9.00;82.13;97580.00;4143593;28;20046;-90
2022/09/17 02:48:19;;;;;;;4.63;2.00;;;;;;;9.14;82.21;97592.06;4119296;28;20146;-91
2022/09/17 02:50:56;;;;;;;4.53;2.22;;;;;;;9.07;82.06;97575.56;4132364;28;20062;-89
2022/09/17 02:53:16;;;;;;;3.35;2.10;;;;;;;9.18;81.80;97584.63;4112970;28;20054;-87
2022/09/17 02:55:40;;;;;;;3.88;2.28;;;;;;;9.16;81.80;97579.56;4164368;28;20485;-90
2022/09/17 02:57:59;;;;;;;2.97;1.77;;;;;;;9.22;81.48;97583.19;4115030;28;20051;-90
2022/09/17 03:00:17;;;;;;;4.47;2.22;;;;;;;9.25;81.41;97581.00;4108763;28;20070;-91
2022/09/17 03:02:29;;;;;;;3.70;2.15;;;;;;;9.15;80.82;97558.84;4098994;29;20050;-88
2022/09/17 03:04:33;;;;;;;2.75;2.10;;;;;;;9.20;81.59;97570.31;4132129;28;20935;-86
2022/09/17 03:06:37;;;;;;;5.03;2.42;;;;;;;9.16;81.83;97569.09;4109032;28;20502;-89
2022/09/17 03:08:41;;;;;;;4.80;2.70;;;;;;;9.20;80.65;97569.53;4110896;28;20049;-89
2022/09/17 03:10:43;;;;;;;2.50;2.22;;;;;;;9.13;80.04;97561.69;4115650;28;20523;-87
2022/09/17 03:12:45;;;;;;;7.13;2.83;;;;;;;9.22;80.23;97577.97;4115613;28;20071;-89
2022/09/17 03:14:46;;;;;;;3.70;2.40;;;;;;;9.12;80.45;97552.22;4128901;28;20042;-90
2022/09/17 03:17:09;;;;;;;3.97;2.40;;;;;;;9.15;80.19;97557.03;4115531;28;20075;-86
2022/09/17 03:19:11;;;;;;;6.20;2.72;;;;;;;9.06;79.99;97548.63;4131354;28;20038;-90
2022/09/17 03:21:13;;;;;;;3.47;2.63;;;;;;;9.04;80.05;97542.75;4146892;28;20069;-87
2022/09/17 03:23:15;;;;;;;3.75;2.53;;;;;;;9.13;80.50;97545.97;4140173;28;20046;-88
2022/09/17 03:25:17;;;;;;;3.78;2.63;;;;;;;9.08;80.11;97545.78;4130842;28;20054;-89
2022/09/17 03:27:21;;;;;;;8.50;3.00;;;;;;;9.15;80.69;97551.00;4147979;28;20056;-90
2022/09/17 03:29:25;;;;;;;5.82;3.00;;;;;;;9.05;80.24;97546.97;4110617;28;20050;-89
2022/09/17 03:31:30;;;;;;;4.15;3.15;;;;;;;9.02;80.31;97541.38;4117009;28;20039;-90
2022/09/17 03:33:33;;;;;;;5.38;2.60;;;;;;;9.10;80.66;97551.59;4116384;28;20133;-86
2022/09/17 03:35:35;;;;;;;6.43;3.22;;;;;;;9.11;80.65;97561.06;4123360;28;20141;-89
2022/09/17 03:37:37;;;;;;;4.63;2.40;;;;;;;9.07;80.51;97541.56;4147135;28;20081;-86
2022/09/17 03:39:39;;;;;;;3.45;2.35;;;;;;;9.13;81.34;97548.59;4108710;28;20080;-89
2022/09/17 03:41:43;;;;;;;6.95;2.55;;;;;;;9.11;80.73;97554.00;4115616;28;20137;-86
2022/09/17 03:43:45;;;;;;;5.45;2.67;;;;;;;9.19;80.91;97563.50;4116043;28;20042;-87
2022/09/17 03:45:48;;;;;;;6.82;2.30;;;;;;;9.17;81.33;97560.25;4108112;28;20073;-84
2022/09/17 03:47:49;;;;;;;3.95;2.40;;;;;;;9.14;80.65;97560.66;4146714;28;20101;-87
2022/09/17 03:49:51;;;;;;;3.08;2.22;;;;;;;9.16;80.65;97558.66;4111944;28;20536;-86
2022/09/17 03:51:53;;;;;;;3.78;2.25;;;;;;;9.17;80.33;97562.06;4108617;28;20043;-90
2022/09/17 03:53:54;;;;;;;2.85;2.25;;;;;;;9.09;80.47;97558.66;4113264;28;20089;-88
2022/09/17 03:56:03;;;;;;;4.50;2.00;;;;;;;9.16;81.71;97557.84;4113794;28;20436;-91
2022/09/17 03:58:06;;;;;;;2.25;2.05;;;;;;;9.23;81.25;97569.09;4115455;28;20090;-92
2022/09/17 04:00:11;;;;;;;6.05;2.53;;;;;;;9.09;80.93;97552.63;4132370;28;20140;-90
2022/09/17 04:02:13;;;;;;;3.83;2.20;;;;;;;9.10;80.83;97554.22;4128776;28;20042;-89
2022/09/17 04:04:14;;;;;;;3.67;2.05;;;;;;;9.14;80.97;97565.91;4148546;28;20045;-92
2022/09/17 04:06:16;;;;;;;5.32;1.83;;;;;;;9.18;81.54;97561.06;4128218;28;20053;-92
2022/09/17 04:08:18;;;;;;;4.15;1.90;;;;;;;9.16;80.87;97561.25;4158149;28;20148;-89
2022/09/17 04:10:21;;;;;;;3.15;1.77;;;;;;;9.21;80.73;97564.06;4144884;28;20073;-88
2022/09/17 04:12:23;;;;;;;4.35;1.85;;;;;;;9.12;80.92;97562.69;4139754;28;20042;-93
2022/09/17 04:14:25;;;;;;;2.67;1.80;;;;;;;9.23;80.79;97567.28;4115875;28;20145;-90
2022/09/17 04:16:45;;;;;;;2.85;1.70;;;;;;;9.21;81.09;97566.69;4140675;28;20056;-90
2022/09/17 04:19:05;;;;;;;2.20;1.70;;;;;;;9.24;81.01;97568.91;4117947;28;20046;-87
2022/09/17 04:21:06;;;;;;;3.10;1.85;;;;;;;9.21;80.87;97561.47;4107486;28;20094;-90
2022/09/17 04:23:11;;;;;;;5.05;2.00;;;;;;;9.19;81.00;97565.31;4149600;28;20481;-92
2022/09/17 04:25:14;;;;;;;1.98;1.52;;;;;;;9.17;80.95;97557.63;4115640;28;20047;-89
2022/09/17 04:27:15;;;;;;;3.70;1.63;;;;;;;9.17;80.94;97557.63;4118227;28;20129;-93
2022/09/17 04:29:17;;;;;;;2.92;1.70;;;;;;;9.11;81.13;97546.16;4117059;28;20042;-90
2022/09/17 04:31:21;;;;;;;2.30;1.73;;;;;;;9.09;81.16;97548.19;4117315;28;20047;-91
2022/09/17 04:33:24;;;;;;;2.60;1.50;;;;;;;9.13;81.67;97548.59;4134225;28;20130;-92
2022/09/17 04:35:26;;;;;;;2.85;1.90;;;;;;;9.04;81.42;97544.56;4116959;28;20053;-89
2022/09/17 04:37:31;;;;;;;4.35;1.48;;;;;;;9.10;81.58;97543.75;4132618;28;20490;-87
2022/09/17 04:39:33;;;;;;;3.45;1.95;;;;;;;9.18;81.47;97545.38;4137527;28;20113;-92
2022/09/17 04:41:39;;;;;;;5.32;1.80;;;;;;;9.16;81.50;97544.75;4115966;28;20051;-86
2022/09/17 04:43:40;;;;;;;3.17;1.70;;;;;;;9.16;81.43;97548.19;4117648;28;20053;-87
2022/09/17 04:45:46;;;;;;;1.95;1.48;;;;;;;9.23;81.07;97548.16;4101310;29;20495;-85
2022/09/17 04:47:50;;;;;;;3.47;1.80;;;;;;;9.15;80.89;97545.78;4107496;28;20059;-92
2022/09/17 04:49:53;;;;;;;5.25;2.10;;;;;;;9.10;81.28;97543.75;4134247;28;20149;-86
2022/09/17 04:51:55;;;;;;;3.00;1.23;;;;;;;9.20;81.58;97559.84;4126517;28;20047;-85
2022/09/17 04:53:56;;;;;;;4.50;1.70;;;;;;;9.10;81.74;97551.59;4140130;28;20093;-84
2022/09/17 04:56:00;;;;;;;2.90;1.70;;;;;;;9.09;81.74;97552.63;4132727;28;20483;-88
2022/09/17 04:58:05;;;;;;;4.03;1.70;;;;;;;9.18;82.56;97561.88;4148319;28;20046;-90
2022/09/17 05:00:09;;;;;;;5.30;1.70;;;;;;;9.19;82.25;97549.59;4115000;28;20134;-85
2022/09/17 05:02:10;;;;;;;3.17;1.70;;;;;;;9.21;82.18;97565.88;4149119;28;20042;-87
2022/09/17 05:04:13;;;;;;;3.22;1.80;;;;;;;9.22;82.73;97567.50;4126275;28;20123;-87
2022/09/17 05:06:14;;;;;;;3.55;1.50;;;;;;;9.15;83.05;97564.88;4117467;28;20094;-88
2022/09/17 05:08:16;;;;;;;2.85;1.73;;;;;;;9.22;84.33;97567.50;4116921;28;20146;-87
2022/09/17 05:10:21;;;;;;;2.17;1.98;;;;;;;9.19;83.59;97565.31;4106805;28;20049;-87
2022/09/17 05:12:24;;;;;;;3.22;1.80;;;;;;;9.14;84.35;97571.13;4101719;28;20051;-88
2022/09/17 05:14:26;;;;;;;2.40;1.42;;;;;;;9.06;85.37;97563.50;4107098;28;20043;-87
2022/09/17 05:16:46;;;;;;;1.88;1.40;;;;;;;9.02;85.03;97567.53;4117480;28;20093;-85
2022/09/17 05:18:50;;;;;;;2.17;1.48;;;;;;;9.03;86.27;97579.59;4118117;28;20043;-86
2022/09/17 05:20:52;;;;;;;3.75;2.30;;;;;;;8.98;86.66;97582.81;4116909;28;20133;-89
2022/09/17 05:22:54;;;;;;;2.83;1.67;;;;;;;8.89;86.85;97578.00;4096968;29;20052;-88
2022/09/17 05:24:56;;;;;;;4.32;1.70;;;;;;;8.88;88.23;97577.19;4115933;28;20054;-87
2022/09/17 05:26:57;;;;;;;2.92;1.50;;;;;;;8.84;88.27;97576.78;4112266;28;20057;-90
2022/09/17 05:28:59;;;;;;;2.58;1.50;;;;;;;8.81;89.55;97581.59;4115392;28;20043;-90
2022/09/17 05:31:02;;;;;;;3.03;1.60;;;;;;;8.85;89.42;97588.84;4131371;28;20038;-91
2022/09/17 05:33:06;;;;;;;3.10;1.50;;;;;;;8.82;89.88;97597.09;4114251;28;20134;-89
2022/09/17 05:35:08;;;;;;;2.47;1.33;;;;;;;8.77;88.77;97581.22;4146433;28;20077;-85
2022/09/17 05:37:10;;;;;;;2.45;1.40;;;;;;;8.78;88.96;97590.66;4127410;28;20054;-87
2022/09/17 05:39:12;;;;;;;1.63;1.30;;;;;;;8.72;89.49;97588.84;4104844;28;20050;-87
2022/09/17 05:41:14;;;;;;;3.67;1.40;;;;;;;8.74;90.47;97589.44;4115445;28;20035;-88
2022/09/17 05:43:17;;;;;;;1.90;1.73;;;;;;;8.71;90.10;97595.06;4116565;28;20126;-84
2022/09/17 05:45:18;;;;;;;2.17;1.25;;;;;;;8.68;91.91;97592.03;4115068;28;20115;-90
2022/09/17 05:47:20;;;;;;;1.95;1.33;;;;;;;8.68;93.00;97587.63;4115291;28;20042;-89
2022/09/17 05:49:22;;;;;;;2.92;1.42;;;;;;;8.66;91.60;97579.19;4114880;28;20043;-87
2022/09/17 05:51:24;;;;;;;1.95;1.15;;;;;;;8.79;92.61;97591.44;4127528;28;20054;-91
2022/09/17 05:53:26;;;;;;;3.35;1.10;;;;;;;8.76;91.80;97584.84;4130977;28;20066;-88
2022/09/17 05:55:28;;;;;;;1.73;1.10;;;;;;;8.50;90.20;97571.72;4118786;28;20050;-91
2022/09/17 05:57:30;;;;;;;1.70;1.17;;;;;;;8.50;91.21;97579.56;4099195;28;20058;-89
2022/09/17 05:59:32;;;;;;;1.98;1.00;;;;;;;8.54;92.34;97581.56;4140614;28;20086;-91
2022/09/17 06:01:33;;;;;;;2.67;1.00;;;;;;;8.52;92.00;97573.13;4123557;28;20129;-89
2022/09/17 06:03:35;;;;;;;1.80;1.00;;;;;;;8.53;93.05;97576.56;4108441;28;20062;-90
2022/09/17 06:05:40;;;;;;;1.50;1.25;;;;;;;8.51;92.62;97586.38;4129239;28;20054;-92
2022/09/17 06:07:46;;;;;;;0.80;0.80;;;;;;;8.50;91.79;97574.31;4143969;28;20088;-91
2022/09/17 06:09:47;;;;;;;2.47;1.25;;;;;;;8.42;91.60;97572.72;4145868;28;20049;-88
2022/09/17 06:11:49;;;;;;;2.60;1.02;;;;;;;8.43;91.84;97578.75;4115221;28;20130;-87
2022/09/17 06:13:55;;;;;;;3.80;1.10;;;;;;;8.49;92.28;97583.16;4109499;28;20047;-90
2022/09/17 06:16:04;;;;;;;1.10;1.00;;;;;;;8.47;94.08;97591.22;4121199;28;20046;-87
2022/09/17 06:18:05;;;;;;;2.10;1.20;;;;;;;8.49;93.59;97593.63;4115368;28;20113;-89
2022/09/17 06:20:07;;;;;;;2.33;1.65;;;;;;;8.46;92.72;97592.22;4112247;28;20160;-84
2022/09/17 06:22:09;;;;;;;1.13;1.02;;;;;;;8.43;92.83;97589.19;4130662;28;20429;-90
2022/09/17 06:24:11;;;;;;;2.95;1.63;;;;;;;8.40;92.74;97589.59;4097449;29;20069;-90
2022/09/17 06:26:13;;;;;;;3.58;1.27;;;;;;;8.33;93.00;97595.56;4124440;28;20046;-87
2022/09/17 06:28:14;;;;;;;1.50;1.10;;;;;;;8.43;93.73;97600.44;4114015;28;20541;-88
2022/09/17 06:30:16;;;;;;;1.33;1.20;;;;;;;8.43;94.12;97597.84;4115140;28;20062;-88
2022/09/17 06:32:18;;;;;;;1.52;1.20;;;;;;;8.46;94.65;97615.75;4106723;28;20074;-89
2022/09/17 06:34:19;;;;;;;2.95;1.30;;;;;;;8.49;94.51;97617.16;4110612;28;20043;-86
2022/09/17 06:36:21;;;;;;;2.97;1.38;;;;;;;8.43;94.48;97610.09;4139201;28;20052;-89
2022/09/17 06:38:22;;;;;;;1.75;1.30;;;;;;;8.36;94.83;97604.84;4130347;28;20122;-86
2022/09/17 06:40:24;;;;;;;3.50;1.50;;;;;;;8.32;94.61;97617.47;4139392;28;20050;-88
2022/09/17 06:42:29;;;;;;;2.95;1.50;;;;;;;8.36;95.44;97617.13;4138761;28;20050;-88
2022/09/17 06:44:32;;;;;;;3.55;1.63;;;;;;;-143.04;100.00;61139.28;4110060;28;20043;-87
2022/09/17 06:46:39;;;;;;;3.95;1.20;;;;;;;-143.04;100.00;61139.28;4149319;28;20050;-88
2022/09/17 06:48:41;;;;;;;1.58;1.17;;;;;;;-143.04;100.00;61139.28;4103859;28;20502;-92
2022/09/17 06:50:53;;;;;;;1.40;1.13;;;;;;;-143.04;100.00;61139.28;4143786;28;20065;-93
2022/09/17 06:52:54;;;;;;;3.35;1.40;;;;;;;-143.04;100.00;61139.28;4146792;28;20065;-90
2022/09/17 06:54:56;;;;;;;2.53;1.27;;;;;;;-143.04;100.00;61139.28;4131966;28;20054;-92
2022/09/17 06:56:58;;;;;;;1.60;1.38;;;;;;;-143.04;100.00;61139.28;4113888;28;20046;-90
2022/09/17 06:59:04;;;;;;;2.38;1.20;;;;;;;-143.04;100.00;61139.28;4137582;28;20057;-89
2022/09/17 07:01:08;;;;;;;5.82;1.30;;;;;;;-143.04;100.00;61139.28;4131955;28;20089;-91
2022/09/17 07:03:12;;;;;;;1.77;1.35;;;;;;;-143.04;100.00;61139.28;4147188;28;20149;-92
2022/09/17 07:05:14;;;;;;;2.85;1.40;;;;;;;-143.04;100.00;61139.28;4146235;28;20052;-91
2022/09/17 07:07:15;;;;;;;3.08;1.55;;;;;;;-143.04;100.00;61139.28;4114953;28;20125;-86
2022/09/17 07:09:17;;;;;;;1.65;1.50;;;;;;;-143.04;100.00;61139.28;4115030;28;20042;-88
2022/09/17 07:11:18;;;;;;;1.95;1.45;;;;;;;-143.04;100.00;61139.28;4103188;28;20047;-91
2022/09/17 07:13:20;;;;;;;1.67;1.58;;;;;;;-143.04;100.00;61139.28;4144171;28;20109;-88
2022/09/17 07:15:24;;;;;;;2.22;1.40;;;;;;;-143.04;100.00;61139.28;4129970;28;20639;-89
2022/09/17 07:17:28;;;;;;;1.60;1.50;;;;;;;-143.04;100.00;61139.28;4132730;28;20550;-92
2022/09/17 07:19:30;;;;;;;2.72;1.40;;;;;;;-143.04;100.00;61139.28;4115359;28;20529;-92
2022/09/17 07:21:31;;;;;;;2.63;1.55;;;;;;;-143.04;100.00;61139.28;4119574;28;20464;-91
2022/09/17 07:23:35;;;;;;;1.45;1.35;;;;;;;-143.04;100.00;61139.28;4142631;28;20057;-93
2022/09/17 07:25:37;;;;;;;3.97;1.70;;;;;;;-143.04;100.00;61139.28;4132042;28;20106;-93
2022/09/17 07:27:39;;;;;;;4.40;1.90;;;;;;;-143.04;100.00;61139.28;4119412;28;20043;-91
2022/09/17 07:29:40;;;;;;;2.25;1.70;;;;;;;-143.04;100.00;61139.28;4163838;28;20057;-87
2022/09/17 07:31:42;;;;;;;3.20;1.52;;;;;;;-143.04;100.00;61139.28;4111316;28;20104;-91
2022/09/17 07:33:44;;;;;;;2.88;2.03;;;;;;;-143.04;100.00;61139.28;4132396;28;20569;-90
2022/09/17 07:36:07;;;;;;;4.03;2.08;;;;;;;-143.04;100.00;61139.28;4112628;28;20118;-93
2022/09/17 07:38:09;;;;;;;1.98;1.65;;;;;;;-143.04;100.00;61139.28;4124469;28;20041;-88
2022/09/17 07:40:13;;;;;;;2.60;1.75;;;;;;;-143.04;100.00;61139.28;4151390;28;20532;-88
2022/09/17 07:42:15;;;;;;;4.57;2.60;;;;;;;-143.04;100.00;61139.28;4135727;28;20522;-87
2022/09/17 07:44:17;;;;;;;2.22;1.63;;;;;;;-143.04;100.00;61139.28;4139952;28;20050;-89
2022/09/17 07:46:19;;;;;;;1.88;1.70;;;;;;;-143.04;100.00;61139.28;4139678;28;20075;-86
2022/09/17 07:48:21;;;;;;;2.60;2.00;;;;;;;-143.04;100.00;61139.28;4116479;28;20039;-87
2022/09/17 07:50:23;;;;;;;3.13;1.85;;;;;;;-143.04;100.00;61139.28;4148730;28;20147;-88
2022/09/17 07:52:25;;;;;;;3.58;2.10;;;;;;;-143.04;100.00;61139.28;4116246;28;20047;-87
2022/09/17 07:54:26;;;;;;;5.30;1.90;;;;;;;-143.04;100.00;61139.28;4142885;28;20041;-86
2022/09/17 07:56:28;;;;;;;3.38;2.10;;;;;;;-143.04;100.00;61139.28;4115301;28;20062;-92
2022/09/17 07:58:37;;;;;;;2.63;1.48;;;;;;;-143.04;100.00;61139.28;4101464;28;20546;-93
2022/09/17 08:00:44;;;;;;;2.58;1.95;;;;;;;-143.04;100.00;61139.28;4149013;28;20049;-93
2022/09/17 08:02:53;;;;;;;2.40;2.10;;;;;;;-143.04;100.00;61139.28;4134540;28;20438;-88
2022/09/17 08:05:01;;;;;;;4.10;2.00;;;;;;;-143.04;100.00;61139.28;4148568;28;20599;-91
2022/09/17 08:07:03;;;;;;;2.60;2.08;;;;;;;-143.04;100.00;61139.28;4117295;28;20039;-89
2022/09/17 08:09:05;;;;;;;2.55;2.15;;;;;;;-143.04;100.00;61139.28;4118345;28;20074;-90
2022/09/17 08:11:13;;;;;;;4.57;2.20;;;;;;;-143.04;100.00;61139.28;4118096;28;20043;-91
2022/09/17 08:13:33;;;;;;;2.45;1.88;;;;;;;-143.04;100.00;61139.28;4142956;28;20045;-93
2022/09/17 08:15:34;;;;;;;6.63;2.25;;;;;;;-143.04;100.00;61139.28;4142798;28;20049;-91
2022/09/17 08:17:36;;;;;;;3.38;2.40;;;;;;;-143.04;100.00;61139.28;4101729;28;20049;-92
2022/09/17 08:19:38;;;;;;;2.85;2.00;;;;;;;-143.04;100.00;61139.28;4117121;28;20518;-92
2022/09/17 08:21:40;;;;;;;3.42;2.10;;;;;;;-143.04;100.00;61139.28;4149594;28;20042;-89
2022/09/17 08:23:43;;;;;;;4.25;2.40;;;;;;;-143.04;100.00;61139.28;4117097;28;20054;-92
2022/09/17 08:25:51;;;;;;;5.18;2.30;;;;;;;-143.04;100.00;61139.28;4145500;28;20117;-91
2022/09/17 08:27:55;;;;;;;4.13;2.13;;;;;;;-143.04;100.00;61139.28;4148234;28;20050;-89
2022/09/17 08:30:01;;;;;;;2.83;2.10;;;;;;;-143.04;100.00;61139.28;4131613;28;20546;-88
2022/09/17 08:32:12;;;;;;;4.55;2.13;;;;;;;-143.04;100.00;61139.28;4107481;28;20053;-90
2022/09/17 08:34:15;;;;;;;4.25;2.30;;;;;;;-143.04;100.00;61139.28;4102618;28;20046;-87
2022/09/17 08:36:24;;;;;;;2.47;1.83;;;;;;;-143.04;100.00;61139.28;4136691;28;20501;-87
2022/09/17 08:38:28;;;;;;;5.70;2.22;;;;;;;-143.04;100.00;61139.28;4108812;28;20090;-88
2022/09/17 08:40:51;;;;;;;5.25;2.67;;;;;;;-143.04;100.00;61139.28;4114866;28;20113;-86
2022/09/17 08:43:00;;;;;;;3.33;2.30;;;;;;;-143.04;100.00;61139.28;4139832;28;20042;-87
2022/09/17 08:45:13;;;;;;;4.13;2.35;;;;;;;-143.04;100.00;61139.28;4116562;28;20160;-86
2022/09/17 08:47:29;;;;;;;4.38;2.10;;;;;;;-143.04;100.00;61139.28;4147406;28;20076;-86
2022/09/17 08:49:57;;;;;;;3.85;2.30;;;;;;;-143.04;100.00;61139.28;4136630;28;20054;-86
2022/09/17 08:52:36;;;;;;;6.03;2.50;;;;;;;-143.04;100.00;61139.28;4140042;28;20066;-88
2022/09/17 08:55:23;;;;;;;4.20;2.50;;;;;;;-143.04;100.00;61139.28;4139855;28;20125;-88
2022/09/17 08:57:55;;;;;;;3.08;2.05;;;;;;;-143.04;100.00;61139.28;4142088;28;20077;-86
2022/09/17 09:00:18;;;;;;;4.85;2.10;;;;;;;10.70;84.95;97728.31;4131202;28;20054;-88
2022/09/17 09:02:57;;;;;;;3.75;2.40;;;;;;;10.65;84.27;97722.88;4115717;28;20427;-87
2022/09/17 09:05:12;;;;;;;3.42;1.80;;;;;;;10.82;86.46;97726.63;4102120;28;20146;-87
2022/09/17 09:07:25;;;;;;;5.85;2.35;;;;;;;10.93;81.97;97728.59;4109008;28;20051;-88
2022/09/17 09:09:36;;;;;;;3.10;2.20;;;;;;;10.89;81.91;97721.34;4109215;28;20094;-89
2022/09/17 09:11:40;;;;;;;4.80;2.40;;;;;;;10.88;81.82;97725.78;4140414;28;20054;-92
2022/09/17 09:13:54;;;;;;;6.10;2.10;;;;;;;10.83;80.37;97717.75;4132405;28;20072;-93
2022/09/17 09:16:05;;;;;;;3.88;2.25;;;;;;;10.96;82.28;97738.66;4115675;28;20047;-93
2022/09/17 09:18:30;;;;;;;2.92;2.03;;;;;;;10.99;81.19;97738.25;4116967;28;20074;-90
2022/09/17 09:20:54;;;;;;;3.30;1.90;;;;;;;11.01;82.13;97730.16;4129148;28;20046;-90
2022/09/17 09:23:14;;;;;;;4.90;2.22;;;;;;;10.95;80.75;97729.16;4115450;28;20074;-90
2022/09/17 09:25:23;;;;;;;3.92;2.30;;;;;;;10.80;80.88;97728.66;4117063;28;20051;-92
2022/09/17 09:27:40;;;;;;;4.68;1.60;;;;;;;10.89;81.92;97722.16;4147709;28;20057;-93
2022/09/17 09:30:08;;;;;;;5.75;2.42;;;;;;;10.92;81.96;97726.97;4164493;28;20045;-93
2022/09/17 09:32:16;;;;;;;5.93;2.20;;;;;;;10.91;80.69;97727.16;4132766;28;20049;-90
2022/09/17 09:34:19;;;;;;;4.68;2.28;;;;;;;10.93;78.94;97718.09;4116678;28;20503;-91
2022/09/17 09:36:22;;;;;;;5.05;2.70;;;;;;;11.18;79.11;97725.22;4154667;28;20137;-91
2022/09/17 09:38:34;;;;;;;5.35;2.13;;;;;;;11.39;79.72;97737.97;4131776;28;20570;-91
2022/09/17 09:40:52;;;;;;;4.40;2.15;;;;;;;11.43;79.53;97733.91;4144343;28;20069;-93
2022/09/17 09:43:02;;;;;;;4.38;1.98;;;;;;;11.56;75.89;97732.19;4132931;28;20530;-91
2022/09/17 09:45:53;;;;;;;5.22;2.20;;;;;;;11.55;77.59;97717.47;4140084;28;20137;-90
2022/09/17 09:48:26;;;;;;;;;;;;;;;11.71;78.53;97737.94;4132567;28;20074;-91
2022/09/17 09:51:13;;;;;;;5.72;2.10;;;;;;;11.68;77.11;97730.47;4164233;28;19921;-92
2022/09/17 09:53:44;;;;;;;5.43;2.05;;;;;;;11.57;76.04;97731.16;4118397;28;20479;-86
2022/09/17 09:56:09;;;;;;;;;;;;;;;11.52;76.70;97739.72;4099917;28;20090;-92
2022/09/17 09:58:23;;;;;;;3.88;2.00;;;;;;;11.45;76.83;97731.84;4161589;28;20008;-89
2022/09/17 10:00:36;;;;;;;5.65;2.53;;;;;;;11.55;76.22;97741.91;4133167;28;20135;-90
2022/09/17 10:02:39;;;;;;;6.00;2.30;;;;;;;11.65;77.01;97736.19;4148997;28;20064;-89
2022/09/17 10:04:41;;;;;;;3.33;1.92;;;;;;;11.65;74.96;97738.81;4114636;28;20566;-88
2022/09/17 10:06:46;;;;;;;4.88;2.30;;;;;;;11.57;75.47;97723.28;4115924;28;20043;-87
2022/09/17 10:08:53;;;;;;;7.38;2.40;;;;;;;11.70;73.73;97728.47;4109549;28;20043;-87